Time,TemperatureF,DewpointF,PressureIn,WindDirection,WindDirectionDegrees,WindSpeedMPH,WindSpeedGustMPH,Humidity,HourlyPrecipIn,Conditions,Clouds,dailyrainin,SolarRadiationWatts/m^2,SoftwareType,DateUTC
2013-05-02 00:01:00,79.0,68.0,-100.00,NW,323,1.0,6.0,69,0.00,,,0.10,1260.000000,,2013-05-02 00:01:00,
2013-05-02 01:11:00,77.0,68.0,-100.00,ENE,75,0.0,6.0,73,-99.99,,,0.03,644.000000,,2013-05-02 01:11:00,
2013-05-02 01:42:00,77.0,68.0,-100.00,ENE,75,0.0,6.0,73,-99.99,,,0.03,644.000000,,2013-05-02 01:42:00,
2013-05-02 01:52:00,77.0,68.0,-100.00,ENE,75,0.0,6.0,73,-99.99,,,0.03,644.000000,,2013-05-02 01:52:00,
2013-05-02 02:01:00,77.0,68.0,-100.00,ENE,75,0.0,6.0,73,-99.99,,,0.03,644.000000,,2013-05-02 02:01:00,
2013-05-02 02:11:00,74.0,68.0,-100.00,North,0,0.0,6.0,81,0.00,,,0.00,315.000000,,2013-05-02 02:11:00,
2013-05-02 03:01:00,74.0,68.0,-100.00,North,0,0.0,6.0,81,0.00,,,0.00,315.000000,,2013-05-02 03:01:00,
2013-05-02 03:11:00,73.0,67.0,-100.00,NNE,15,0.0,6.0,82,0.00,,,0.00,180.000000,,2013-05-02 03:11:00,
2013-05-02 03:33:00,73.0,67.0,-100.00,NNE,15,0.0,6.0,82,0.00,,,0.00,180.000000,,2013-05-02 03:33:00,
2013-05-02 03:43:00,73.0,67.0,-100.00,NNE,15,0.0,6.0,82,0.00,,,0.00,180.000000,,2013-05-02 03:43:00,
2013-05-02 03:53:00,73.0,67.0,-100.00,NNE,15,0.0,6.0,82,0.00,,,0.00,180.000000,,2013-05-02 03:53:00,
2013-05-02 04:03:00,73.0,67.0,-100.00,NNE,15,0.0,6.0,82,0.00,,,0.00,180.000000,,2013-05-02 04:03:00,
2013-05-02 04:11:00,70.0,69.0,-100.00,North,4,1.0,9.0,96,0.00,,,0.00,49.000000,,2013-05-02 04:11:00,
2013-05-02 04:33:00,70.0,69.0,-100.00,North,4,1.0,9.0,96,0.00,,,0.00,49.000000,,2013-05-02 04:33:00,
2013-05-02 04:43:00,70.0,69.0,-100.00,North,4,1.0,9.0,96,0.00,,,0.00,49.000000,,2013-05-02 04:43:00,
2013-05-02 04:52:00,70.0,69.0,-100.00,North,4,1.0,9.0,96,0.00,,,0.00,49.000000,,2013-05-02 04:52:00,
2013-05-02 05:02:00,70.0,69.0,-100.00,North,4,1.0,9.0,96,0.00,,,0.00,49.000000,,2013-05-02 05:02:00,
2013-05-02 05:11:00,69.0,68.0,-100.00,NNW,337,1.0,10.0,98,0.00,,,0.00,49.000000,,2013-05-02 05:11:00,
2013-05-02 05:32:00,69.0,68.0,-100.00,NNW,337,1.0,10.0,98,0.00,,,0.00,49.000000,,2013-05-02 05:32:00,
2013-05-02 05:42:00,69.0,68.0,-100.00,NNW,337,1.0,10.0,98,0.00,,,0.00,49.000000,,2013-05-02 05:42:00,
2013-05-02 05:52:00,69.0,68.0,-100.00,NNW,337,1.0,10.0,98,0.00,,,0.00,49.000000,,2013-05-02 05:52:00,
2013-05-02 06:01:00,69.0,68.0,-100.00,NNW,337,1.0,10.0,98,0.00,,,0.00,49.000000,,2013-05-02 06:01:00,
2013-05-02 08:11:00,66.0,64.0,-100.00,ENE,77,0.0,5.0,94,-99.99,,,0.00,0.000000,,2013-05-02 08:11:00,
2013-05-02 08:42:00,66.0,64.0,-100.00,ENE,77,0.0,5.0,94,-99.99,,,0.00,0.000000,,2013-05-02 08:42:00,
2013-05-02 08:52:00,66.0,64.0,-100.00,ENE,77,0.0,5.0,94,-99.99,,,0.00,0.000000,,2013-05-02 08:52:00,
2013-05-02 09:02:00,66.0,64.0,-100.00,ENE,77,0.0,5.0,94,-99.99,,,0.00,0.000000,,2013-05-02 09:02:00,
2013-05-02 09:11:00,66.0,64.0,-100.00,SE,124,0.0,0.0,94,0.00,,,0.00,0.000000,,2013-05-02 09:11:00,
2013-05-02 09:42:00,66.0,64.0,-100.00,SE,124,0.0,0.0,94,0.00,,,0.00,0.000000,,2013-05-02 09:42:00,
2013-05-02 09:52:00,66.0,64.0,-100.00,SE,124,0.0,0.0,94,0.00,,,0.00,0.000000,,2013-05-02 09:52:00,
2013-05-02 10:02:00,66.0,64.0,-100.00,SE,124,0.0,0.0,94,0.00,,,0.00,0.000000,,2013-05-02 10:02:00,
2013-05-02 10:11:00,64.0,61.0,-100.00,WSW,257,0.0,0.0,90,0.00,,,0.00,0.000000,,2013-05-02 10:11:00,
2013-05-02 10:33:00,64.0,61.0,-100.00,WSW,257,0.0,0.0,90,0.00,,,0.00,0.000000,,2013-05-02 10:33:00,
2013-05-02 10:42:00,64.0,61.0,-100.00,WSW,257,0.0,0.0,90,0.00,,,0.00,0.000000,,2013-05-02 10:42:00,
2013-05-02 10:52:00,64.0,61.0,-100.00,WSW,257,0.0,0.0,90,0.00,,,0.00,0.000000,,2013-05-02 10:52:00,
2013-05-02 11:02:00,64.0,61.0,-100.00,WSW,257,0.0,0.0,90,0.00,,,0.00,0.000000,,2013-05-02 11:02:00,
2013-05-02 11:11:00,66.0,64.0,-100.00,North,7,0.0,0.0,94,0.00,,,0.00,0.000000,,2013-05-02 11:11:00,
2013-05-02 11:32:00,66.0,64.0,-100.00,North,7,0.0,0.0,94,0.00,,,0.00,0.000000,,2013-05-02 11:32:00,
2013-05-02 11:42:00,66.0,64.0,-100.00,North,7,0.0,0.0,94,0.00,,,0.00,0.000000,,2013-05-02 11:42:00,
2013-05-02 11:52:00,66.0,64.0,-100.00,North,7,0.0,0.0,94,0.00,,,0.00,0.000000,,2013-05-02 11:52:00,
2013-05-02 12:01:00,66.0,64.0,-100.00,North,7,0.0,0.0,94,0.00,,,0.00,0.000000,,2013-05-02 12:01:00,
2013-05-02 13:11:00,62.0,56.0,-100.00,ENE,78,0.0,0.0,82,-99.99,,,0.00,0.000000,,2013-05-02 13:11:00,
2013-05-02 13:42:00,62.0,56.0,-100.00,ENE,78,0.0,0.0,82,-99.99,,,0.00,0.000000,,2013-05-02 13:42:00,
2013-05-02 13:52:00,62.0,56.0,-100.00,ENE,78,0.0,0.0,82,-99.99,,,0.00,0.000000,,2013-05-02 13:52:00,
2013-05-02 14:02:00,62.0,56.0,-100.00,ENE,78,0.0,0.0,82,-99.99,,,0.00,0.000000,,2013-05-02 14:02:00,
2013-05-02 14:11:00,62.0,55.0,-100.00,NE,49,0.0,0.0,77,0.00,,,0.00,0.000000,,2013-05-02 14:11:00,
2013-05-02 14:43:00,62.0,55.0,-100.00,NE,49,0.0,0.0,77,0.00,,,0.00,0.000000,,2013-05-02 14:43:00,
2013-05-02 14:52:00,62.0,55.0,-100.00,NE,49,0.0,0.0,77,0.00,,,0.00,0.000000,,2013-05-02 14:52:00,
2013-05-02 15:02:00,62.0,55.0,-100.00,NE,49,0.0,0.0,77,0.00,,,0.00,0.000000,,2013-05-02 15:02:00,
2013-05-02 15:11:00,65.0,56.0,-100.00,West,275,0.0,6.0,72,0.00,,,0.00,0.000000,,2013-05-02 15:11:00,
2013-05-02 15:33:00,65.0,56.0,-100.00,West,275,0.0,6.0,72,0.00,,,0.00,0.000000,,2013-05-02 15:33:00,
2013-05-02 15:43:00,65.0,56.0,-100.00,West,275,0.0,6.0,72,0.00,,,0.00,0.000000,,2013-05-02 15:43:00,
2013-05-02 16:02:00,65.0,56.0,-100.00,West,275,0.0,6.0,72,0.00,,,0.00,0.000000,,2013-05-02 16:02:00,
2013-05-02 16:11:00,64.0,58.0,-100.00,WNW,291,0.0,3.0,80,0.00,,,0.00,0.000000,,2013-05-02 16:11:00,
2013-05-02 16:32:00,64.0,58.0,-100.00,WNW,291,0.0,3.0,80,0.00,,,0.00,0.000000,,2013-05-02 16:32:00,
2013-05-02 16:43:00,64.0,58.0,-100.00,WNW,291,0.0,3.0,80,0.00,,,0.00,0.000000,,2013-05-02 16:43:00,
2013-05-02 16:52:00,64.0,58.0,-100.00,WNW,291,0.0,3.0,80,0.00,,,0.00,0.000000,,2013-05-02 16:52:00,
2013-05-02 17:02:00,64.0,58.0,-100.00,WNW,291,0.0,3.0,80,0.00,,,0.00,0.000000,,2013-05-02 17:02:00,
2013-05-02 17:11:00,65.0,63.0,-100.00,NW,324,0.0,0.0,94,0.00,,,0.00,28.000000,,2013-05-02 17:11:00,
2013-05-02 17:42:00,65.0,63.0,-100.00,NW,324,0.0,0.0,94,0.00,,,0.00,28.000000,,2013-05-02 17:42:00,
2013-05-02 17:52:00,65.0,63.0,-100.00,NW,324,0.0,0.0,94,0.00,,,0.00,28.000000,,2013-05-02 17:52:00,
2013-05-02 18:01:00,65.0,63.0,-100.00,NW,324,0.0,0.0,94,0.00,,,0.00,28.000000,,2013-05-02 18:01:00,
2013-05-02 18:11:00,72.0,64.0,-100.00,NNW,342,0.0,4.0,77,0.00,,,-99.99,221.000000,,2013-05-02 18:11:00,
2013-05-02 18:42:00,72.0,64.0,-100.00,NNW,342,0.0,4.0,77,0.00,,,-99.99,221.000000,,2013-05-02 18:42:00,
2013-05-02 18:52:00,72.0,64.0,-100.00,NNW,342,0.0,4.0,77,0.00,,,-99.99,221.000000,,2013-05-02 18:52:00,
2013-05-02 19:01:00,72.0,64.0,-100.00,NNW,342,0.0,4.0,77,0.00,,,-99.99,221.000000,,2013-05-02 19:01:00,
2013-05-02 19:11:00,78.0,66.0,-100.00,North,351,0.0,4.0,67,0.00,,,0.00,501.000000,,2013-05-02 19:11:00,
2013-05-02 19:32:00,78.0,66.0,-100.00,North,351,0.0,4.0,67,0.00,,,0.00,501.000000,,2013-05-02 19:32:00,
2013-05-02 19:42:00,78.0,66.0,-100.00,North,351,0.0,4.0,67,0.00,,,0.00,501.000000,,2013-05-02 19:42:00,
2013-05-02 19:52:00,78.0,66.0,-100.00,North,351,0.0,4.0,67,0.00,,,0.00,501.000000,,2013-05-02 19:52:00,
2013-05-02 20:02:00,78.0,66.0,-100.00,North,351,0.0,4.0,67,0.00,,,0.00,501.000000,,2013-05-02 20:02:00,
2013-05-02 20:11:00,73.0,62.0,-100.00,WNW,298,0.0,4.0,68,0.00,,,0.00,393.000000,,2013-05-02 20:11:00,
2013-05-02 20:42:00,73.0,62.0,-100.00,WNW,298,0.0,4.0,68,0.00,,,0.00,393.000000,,2013-05-02 20:42:00,
2013-05-02 20:52:00,73.0,62.0,-100.00,WNW,298,0.0,4.0,68,0.00,,,0.00,393.000000,,2013-05-02 20:52:00,
2013-05-02 21:01:00,73.0,62.0,-100.00,WNW,298,0.0,4.0,68,0.00,,,0.00,393.000000,,2013-05-02 21:01:00,
2013-05-02 21:11:00,77.0,63.0,-100.00,West,267,1.0,5.0,62,0.00,,,0.00,564.000000,,2013-05-02 21:11:00,
2013-05-02 21:42:00,77.0,63.0,-100.00,West,267,1.0,5.0,62,0.00,,,0.00,564.000000,,2013-05-02 21:42:00,
2013-05-02 21:53:00,77.0,63.0,-100.00,West,267,1.0,5.0,62,0.00,,,0.00,564.000000,,2013-05-02 21:53:00,
2013-05-02 22:02:00,77.0,63.0,-100.00,West,267,1.0,5.0,62,0.00,,,0.00,564.000000,,2013-05-02 22:02:00,
2013-05-02 22:11:00,75.0,63.0,-100.00,ESE,107,0.0,5.0,66,0.00,,,0.00,429.000000,,2013-05-02 22:11:00,
2013-05-02 22:42:00,75.0,63.0,-100.00,ESE,107,0.0,5.0,66,0.00,,,0.00,429.000000,,2013-05-02 22:42:00,
2013-05-02 22:52:00,75.0,63.0,-100.00,ESE,107,0.0,5.0,66,0.00,,,0.00,429.000000,,2013-05-02 22:52:00,
2013-05-02 23:02:00,75.0,63.0,-100.00,ESE,107,0.0,5.0,66,0.00,,,0.00,429.000000,,2013-05-02 23:02:00,
2013-05-02 23:11:00,75.0,62.0,-100.00,NW,322,0.0,4.0,64,0.00,,,0.00,329.000000,,2013-05-02 23:11:00,
2013-05-02 23:32:00,75.0,62.0,-100.00,NW,322,0.0,4.0,64,0.00,,,0.00,329.000000,,2013-05-02 23:32:00,
2013-05-02 23:42:00,75.0,62.0,-100.00,NW,322,0.0,4.0,64,0.00,,,0.00,329.000000,,2013-05-02 23:42:00,
2013-05-02 23:52:00,75.0,62.0,-100.00,NW,322,0.0,4.0,64,0.00,,,0.00,329.000000,,2013-05-02 23:52:00,